x

Halibut Bank (46146) Wave Buoy

12:00pm - Thu 11th Feb 2016 All times are PST. -8 hours from GMT.

  • Sig Wave height 0.3ft
  • Peak Period 6s
  • Wind
    13mph
  • Sea Temp 45°f
  • Air Temp 46°f
  • Sea Pressure 1021.6mb
  • Halibut Bank
  • Halibut Bank

More Historic Weather Station data

Upgrade to MSW Pro to gain access to the past 30 days of data for over 8000 Wavebouys and Weather Stations around the globe.

Join Pro

Comparision Forecast

View Surf forecast
   
Thu 02/11 12:00pm 0.3ft 6s 13
mph
1021.6mb 45f 46f
11:00am 0.3ft 2s 4 7 mph 1022.6mb 45f 45f
10:00am 0.3ft 4s 2
mph
1022.6mb 45f 45f
9:00am 0.3ft 2s 2 4 mph 1022.6mb 45f 45f
8:00am 0.7ft 3s 4 7 mph 1022.8mb 45f 45f
7:00am 0.7ft 2s 4
mph
1023mb 45f 45f
6:00am 0.7ft 2s 2
mph
1023.6mb 45f 45f
5:00am 0.7ft 2s 4 7 mph 1024.4mb 45f 46f
4:00am 0.7ft 2s 4
mph
1025mb 45f 45f
3:00am 0.7ft 2s 7 11 mph 1025.5mb 45f 46f
2:00am 0.7ft 2s 4
mph
1025.8mb 45f 47f
1:00am 0.3ft 2s 4 9 mph 1025.9mb 45f 46f
12:00am 0.7ft 2s 9 11 mph 1026.5mb 45f 47f
Wed 02/10 11:00pm 0.7ft 4s 11
mph
1026mb 45f 47f
10:00pm 0.7ft 3s 9 11 mph 1025.3mb 45f 47f
9:00pm 0.7ft 3s 9 11 mph 1025mb 45f 49f
8:00pm 0.7ft 3s 7 9 mph 1024.7mb 45f 50f
7:00pm 1ft 3s 9
mph
1024.2mb 45f 49f
6:00pm 1.3ft 3s 11 13 mph 1023.1mb 45f 49f
5:00pm 1.6ft 3s 11 13 mph 1022.6mb 45f 48f
4:00pm 2ft 3s 11 13 mph 1022.3mb 45f 48f
3:00pm 2ft 3s 20 22 mph 1021.2mb 45f 49f
2:00pm 1.3ft 2s 20 22 mph 1020.7mb 45f 49f
1:00pm 1ft 3s 16 20 mph 1020.8mb 45f 47f
12:00pm 1.3ft 2s 13 16 mph 1020.7mb 45f 47f
11:00am 0.3ft 2s 16 18 mph 1020.2mb 45f 47f
10:00am 0.3ft 4s 9
mph
1020.4mb 45f 46f
9:00am 0.3ft 2s 9
mph
1019.9mb 45f 46f
8:00am 0.3ft 3s 9 11 mph 1018.9mb 45f 47f
7:00am 0.7ft 2s 9 11 mph 1018.1mb 45f 47f
6:00am 0.7ft 2s 13 16 mph 1017.7mb 45f 47f
5:00am 1ft 3s 11
mph
1018mb 45f 47f
4:00am 0.7ft 2s 9
mph
1018.1mb 45f 47f
3:00am 0.7ft 2s 9 18 mph 1018.6mb 45f 47f
2:00am 0.7ft 3s 11 13 mph 1018.9mb 45f 47f
1:00am 0.3ft 2s 9 11 mph 1019.1mb 45f 48f
12:00am 0.3ft 2s 2
mph
1019.8mb 45f 47f
Tue 02/09 11:00pm 0.3ft 3s 2 4 mph 1019.6mb 45f 47f
10:00pm 0.3ft 2s 2 4 mph 1019.4mb 45f 47f
9:00pm 0.3ft 7s 9 11 mph 1019.2mb 45f 48f
8:00pm 0.3ft 2s 9
mph
1018.9mb 45f 49f
7:00pm 0.3ft 6s 4 7 mph 1019.4mb 45f 47f
6:00pm 0.3ft 7s 4 7 mph 1019.3mb 45f 47f
5:00pm 0.3ft 3s 4 9 mph 1019.7mb 45f 46f
4:00pm 0.3ft 6s 7 9 mph 1019.8mb 45f 48f
3:00pm 0.3ft 2s 4 7 mph 1020.2mb 45f 46f
2:00pm 0.7ft 3s 4 7 mph 1020.3mb 45f 46f
1:00pm 0.3ft 2s 11 13 mph 1020.9mb 45f 44f
12:00pm 0.3ft 7s 7
mph
1021.7mb 45f 42f
11:00am 0.3ft 2s 2 4 mph 1022.9mb 45f 42f
10:00am 0.3ft 6s 2 4 mph 1022.7mb 45f 41f
9:00am 0.3ft 2s 4 7 mph 1022.8mb 45f 41f
8:00am 0.3ft 5s  -  2 mph 1022.6mb 45f 40f
7:00am 0.3ft 2s 4 7 mph 1022.7mb 45f 41f
6:00am 0.3ft 2s 7
mph
1022.6mb 45f 42f
5:00am 0.3ft 2s 7 9 mph 1023.2mb 45f 43f
4:00am 0.3ft 2s 7 9 mph 1023.7mb 45f 44f
3:00am 0.3ft 2s 7 9 mph 1024.6mb 45f 45f
2:00am 0.7ft 3s 7 9 mph 1025.3mb 45f 45f
1:00am 0.7ft 3s 9
mph
1025.8mb 45f 46f
12:00am 1ft 3s 9 11 mph 1026.8mb 45f 46f
Mon 02/08 11:00pm 1ft 3s 11 13 mph 1027.6mb 45f 46f
10:00pm 1.3ft 3s 13 16 mph 1028.1mb 45f 46f
9:00pm 1.3ft 3s 13 16 mph 1028.4mb 45f 46f
8:00pm 1ft 2s 16 18 mph 1028.8mb 45f 46f
7:00pm 0.7ft 2s 11 13 mph 1029.1mb 45f 46f
6:00pm 0.7ft 2s 11 13 mph 1029.3mb 45f 46f
5:00pm 0.7ft 2s 9 11 mph 1029.6mb 45f 46f
4:00pm 0.7ft 3s 9
mph
1029.9mb 45f 46f
3:00pm 0.7ft 3s 11 13 mph 1030.2mb 45f 46f
2:00pm 0.7ft 3s 11 13 mph 1030.7mb 45f 45f
1:00pm 0.7ft 3s 11 13 mph 1031.4mb 45f 45f
12:00pm 0.7ft 3s 9 11 mph 1032.3mb 45f 45f
11:00am 0.7ft 3s 11
mph
1033mb 45f 45f
10:00am 0.7ft 2s 9 11 mph 1033.2mb 44f 45f
9:00am 0.7ft 3s 9 11 mph 1033.1mb 44f 45f
8:00am 0.3ft 7s 9 11 mph 1033mb 44f 45f
7:00am 0.3ft 2s 9 11 mph 1033mb 45f 44f
6:00am 0.3ft 2s 9 11 mph 1033.3mb 45f 44f
5:00am 0.3ft 2s 4 7 mph 1033.1mb 45f 44f
4:00am 0.3ft 3s 7 9 mph 1033.2mb 45f 45f
3:00am 0.3ft 3s 9 11 mph 1033.7mb 45f 45f
2:00am 0.3ft 2s 9
mph
1034mb 45f 45f
1:00am 0.3ft 3s 4 7 mph 1034.3mb 45f 45f
12:00am 0.3ft 2s 4 7 mph 1035.1mb 45f 45f
Sun 02/07 11:00pm 0.3ft 3s 7
mph
1035.2mb 45f 45f
10:00pm 0.3ft 7s 4
mph
1035.3mb 45f 45f